KRSV

Details ICAO KRSV
Name ROBINSON MUNI
Region United States
Timezone America/Chicago (UTC-5.0)
Plans Departing 2
Arriving 5
Stats Elevation 462 ft / 141 m (AMSL)
Location 39.015937° -87.649224°
Runways 2
Magnetic Variation 3.540° W
Sunrise 2018-06-22 10:26:35 UTC / 2018-06-22 05:26:35 Local
Sunset 2018-06-23 01:21:07 UTC / 2018-06-22 20:21:07 Local
Advertisement - Login to hide

Runways

ID Width Length Bearing (true) Bearing (mag) Surface Threshold Offset Overrun Length
09 75 ft / 23 m 5,097 ft / 1,553 m 91.82° 95.36° Asphalt 0 ft / 0 m 0 ft / 0 m
17 75 ft / 23 m 3,405 ft / 1,038 m 165.85° 169.39° Asphalt 0 ft / 0 m 0 ft / 0 m
27 75 ft / 23 m 5,097 ft / 1,553 m 271.83° 275.37° Asphalt 0 ft / 0 m 0 ft / 0 m
35 75 ft / 23 m 3,405 ft / 1,038 m 345.85° 349.39° Asphalt 0 ft / 0 m 0 ft / 0 m

Map

Weather


0- 5 10 15 20 25 30 35+ Temperature / ° C

Clouds and Precipitation
Forecast for 2018-06-23 00:00 UTC. Updated an hour ago

Ground ~20,000 ft ~40,000 ft Winds

METAR

KRSV 222235Z AUTO 30006KT 10SM VCTSRA SCT029 SCT045 BKN110 20/19 A2970 RMK AO2 LTG DSNT NE AND E T01970188

TAF

Not found

Frequencies

Recorded 120.50 MHz AWOS 3
Approach 119.25 MHz HULMAN APP/DEP
Unicom 123.00 MHz CTAF/UNICOM
Approach 125.60 MHz HULMAN APP/DEP
Warning: Do not use this data for real-world aviation or navigation. No guarantee of current accuracy is given.